sensor_id;sensor_type;location;lat;lon;timestamp;temperature;humidity
16417;DHT22;8317;52.186;5.688;2023-04-01T00:01:41;10.20;99.90
16417;DHT22;8317;52.186;5.688;2023-04-01T00:04:08;10.30;99.90
16417;DHT22;8317;52.186;5.688;2023-04-01T00:06:36;10.30;99.90
16417;DHT22;8317;52.186;5.688;2023-04-01T00:09:03;10.30;99.90
16417;DHT22;8317;52.186;5.688;2023-04-01T00:11:30;10.30;99.90
16417;DHT22;8317;52.186;5.688;2023-04-01T00:13:57;10.30;99.90
16417;DHT22;8317;52.186;5.688;2023-04-01T00:16:24;10.30;99.90
16417;DHT22;8317;52.186;5.688;2023-04-01T00:18:51;10.40;99.90
16417;DHT22;8317;52.186;5.688;2023-04-01T00:21:19;10.40;99.90
16417;DHT22;8317;52.186;5.688;2023-04-01T00:23:49;10.30;99.90
16417;DHT22;8317;52.186;5.688;2023-04-01T00:26:16;10.40;99.90
16417;DHT22;8317;52.186;5.688;2023-04-01T00:28:46;10.40;99.90
16417;DHT22;8317;52.186;5.688;2023-04-01T00:31:14;10.40;99.90
16417;DHT22;8317;52.186;5.688;2023-04-01T00:33:41;10.40;99.90
16417;DHT22;8317;52.186;5.688;2023-04-01T00:36:10;10.30;99.90
16417;DHT22;8317;52.186;5.688;2023-04-01T00:38:37;10.40;99.90
16417;DHT22;8317;52.186;5.688;2023-04-01T00:41:06;10.30;99.90
16417;DHT22;8317;52.186;5.688;2023-04-01T00:43:33;10.40;99.90
16417;DHT22;8317;52.186;5.688;2023-04-01T00:46:00;10.40;99.90
16417;DHT22;8317;52.186;5.688;2023-04-01T00:48:30;10.40;99.90
16417;DHT22;8317;52.186;5.688;2023-04-01T00:51:00;10.40;99.90
16417;DHT22;8317;52.186;5.688;2023-04-01T00:53:29;10.40;99.90
16417;DHT22;8317;52.186;5.688;2023-04-01T00:56:00;10.40;99.90
16417;DHT22;8317;52.186;5.688;2023-04-01T00:58:32;10.40;99.90
16417;DHT22;8317;52.186;5.688;2023-04-01T01:01:01;10.40;99.90
16417;DHT22;8317;52.186;5.688;2023-04-01T01:03:28;10.50;99.90
16417;DHT22;8317;52.186;5.688;2023-04-01T01:06:19;10.40;99.90
16417;DHT22;8317;52.186;5.688;2023-04-01T01:09:03;10.40;99.90
16417;DHT22;8317;52.186;5.688;2023-04-01T01:11:37;10.40;99.90
16417;DHT22;8317;52.186;5.688;2023-04-01T01:14:17;10.40;99.90
16417;DHT22;8317;52.186;5.688;2023-04-01T01:16:50;10.40;99.90
16417;DHT22;8317;52.186;5.688;2023-04-01T01:22:29;10.40;99.90
16417;DHT22;8317;52.186;5.688;2023-04-01T01:25:18;10.40;99.90
16417;DHT22;8317;52.186;5.688;2023-04-01T01:27:54;10.40;99.90
16417;DHT22;8317;52.186;5.688;2023-04-01T01:30:37;10.40;99.90
16417;DHT22;8317;52.186;5.688;2023-04-01T01:36:27;10.30;99.90
16417;DHT22;8317;52.186;5.688;2023-04-01T01:38:57;10.40;99.90
16417;DHT22;8317;52.186;5.688;2023-04-01T01:41:25;10.30;99.90
16417;DHT22;8317;52.186;5.688;2023-04-01T01:43:53;10.40;99.90
16417;DHT22;8317;52.186;5.688;2023-04-01T01:46:24;10.40;99.90
16417;DHT22;8317;52.186;5.688;2023-04-01T01:48:52;10.20;99.90
16417;DHT22;8317;52.186;5.688;2023-04-01T01:51:21;10.40;99.90
16417;DHT22;8317;52.186;5.688;2023-04-01T01:53:50;10.30;99.90
16417;DHT22;8317;52.186;5.688;2023-04-01T01:56:18;10.40;99.90
16417;DHT22;8317;52.186;5.688;2023-04-01T01:58:50;10.30;99.90
16417;DHT22;8317;52.186;5.688;2023-04-01T02:01:22;10.30;99.90
16417;DHT22;8317;52.186;5.688;2023-04-01T02:03:51;10.30;99.90
16417;DHT22;8317;52.186;5.688;2023-04-01T02:06:21;10.30;99.90
16417;DHT22;8317;52.186;5.688;2023-04-01T02:08:52;10.20;99.90
16417;DHT22;8317;52.186;5.688;2023-04-01T02:11:26;10.20;99.90
16417;DHT22;8317;52.186;5.688;2023-04-01T02:13:55;10.20;99.90
16417;DHT22;8317;52.186;5.688;2023-04-01T02:16:28;10.20;99.90
16417;DHT22;8317;52.186;5.688;2023-04-01T02:18:58;10.20;99.90
16417;DHT22;8317;52.186;5.688;2023-04-01T02:21:30;10.10;99.90
16417;DHT22;8317;52.186;5.688;2023-04-01T02:24:01;10.20;99.90
16417;DHT22;8317;52.186;5.688;2023-04-01T02:26:29;10.10;99.90
16417;DHT22;8317;52.186;5.688;2023-04-01T02:28:57;10.10;99.90
16417;DHT22;8317;52.186;5.688;2023-04-01T02:31:27;10.10;99.90
16417;DHT22;8317;52.186;5.688;2023-04-01T02:33:54;10.00;99.90
16417;DHT22;8317;52.186;5.688;2023-04-01T02:36:21;10.10;99.90
16417;DHT22;8317;52.186;5.688;2023-04-01T02:38:49;10.10;99.90
16417;DHT22;8317;52.186;5.688;2023-04-01T02:41:19;10.10;99.90
16417;DHT22;8317;52.186;5.688;2023-04-01T02:43:46;10.10;99.90
16417;DHT22;8317;52.186;5.688;2023-04-01T02:46:13;10.00;99.90
16417;DHT22;8317;52.186;5.688;2023-04-01T02:48:40;10.00;99.90
16417;DHT22;8317;52.186;5.688;2023-04-01T02:51:08;10.00;99.90
16417;DHT22;8317;52.186;5.688;2023-04-01T02:53:35;10.10;99.90
16417;DHT22;8317;52.186;5.688;2023-04-01T02:56:02;10.10;99.90
16417;DHT22;8317;52.186;5.688;2023-04-01T02:58:30;10.00;99.90
16417;DHT22;8317;52.186;5.688;2023-04-01T03:00:57;10.00;99.90
16417;DHT22;8317;52.186;5.688;2023-04-01T03:03:24;10.00;99.90
16417;DHT22;8317;52.186;5.688;2023-04-01T03:05:51;10.00;99.90
16417;DHT22;8317;52.186;5.688;2023-04-01T03:08:21;10.00;99.90
16417;DHT22;8317;52.186;5.688;2023-04-01T03:10:47;10.00;99.90
16417;DHT22;8317;52.186;5.688;2023-04-01T03:13:14;9.90;99.90
16417;DHT22;8317;52.186;5.688;2023-04-01T03:15:42;10.00;99.90
16417;DHT22;8317;52.186;5.688;2023-04-01T03:18:09;10.00;99.90
16417;DHT22;8317;52.186;5.688;2023-04-01T03:20:36;10.00;99.90
16417;DHT22;8317;52.186;5.688;2023-04-01T03:23:03;10.00;99.90
16417;DHT22;8317;52.186;5.688;2023-04-01T03:25:30;10.00;99.90
16417;DHT22;8317;52.186;5.688;2023-04-01T03:27:57;10.00;99.90
16417;DHT22;8317;52.186;5.688;2023-04-01T03:30:25;9.90;99.90
16417;DHT22;8317;52.186;5.688;2023-04-01T03:32:53;9.90;99.90
16417;DHT22;8317;52.186;5.688;2023-04-01T03:35:20;9.90;99.90
16417;DHT22;8317;52.186;5.688;2023-04-01T03:37:47;9.90;99.90
16417;DHT22;8317;52.186;5.688;2023-04-01T03:40:14;10.00;99.90
16417;DHT22;8317;52.186;5.688;2023-04-01T03:42:41;10.00;99.90
16417;DHT22;8317;52.186;5.688;2023-04-01T03:45:08;10.00;99.90
16417;DHT22;8317;52.186;5.688;2023-04-01T03:47:35;10.00;99.90
16417;DHT22;8317;52.186;5.688;2023-04-01T03:50:05;9.90;99.90
16417;DHT22;8317;52.186;5.688;2023-04-01T03:52:32;10.00;99.90
16417;DHT22;8317;52.186;5.688;2023-04-01T03:54:59;9.90;99.90
16417;DHT22;8317;52.186;5.688;2023-04-01T03:57:26;9.90;99.90
16417;DHT22;8317;52.186;5.688;2023-04-01T03:59:53;9.90;99.90
16417;DHT22;8317;52.186;5.688;2023-04-01T04:02:20;9.90;99.90
16417;DHT22;8317;52.186;5.688;2023-04-01T04:04:47;9.90;99.90
16417;DHT22;8317;52.186;5.688;2023-04-01T04:07:15;9.90;99.90
16417;DHT22;8317;52.186;5.688;2023-04-01T04:09:42;9.90;99.90
16417;DHT22;8317;52.186;5.688;2023-04-01T04:12:09;10.00;99.90
16417;DHT22;8317;52.186;5.688;2023-04-01T04:14:36;9.90;99.90
16417;DHT22;8317;52.186;5.688;2023-04-01T04:17:03;9.90;99.90
16417;DHT22;8317;52.186;5.688;2023-04-01T04:19:32;9.90;99.90
16417;DHT22;8317;52.186;5.688;2023-04-01T04:21:59;10.00;99.90
16417;DHT22;8317;52.186;5.688;2023-04-01T04:24:28;9.90;99.90
16417;DHT22;8317;52.186;5.688;2023-04-01T04:26:55;9.90;99.90
16417;DHT22;8317;52.186;5.688;2023-04-01T04:29:22;10.00;99.90
16417;DHT22;8317;52.186;5.688;2023-04-01T04:31:49;9.90;99.90
16417;DHT22;8317;52.186;5.688;2023-04-01T04:34:16;9.90;99.90
16417;DHT22;8317;52.186;5.688;2023-04-01T04:36:44;9.80;99.90
16417;DHT22;8317;52.186;5.688;2023-04-01T04:39:11;9.90;99.90
16417;DHT22;8317;52.186;5.688;2023-04-01T04:41:40;9.80;99.90
16417;DHT22;8317;52.186;5.688;2023-04-01T04:44:07;9.80;99.90
16417;DHT22;8317;52.186;5.688;2023-04-01T04:46:34;9.80;99.90
16417;DHT22;8317;52.186;5.688;2023-04-01T04:49:02;9.80;99.90
16417;DHT22;8317;52.186;5.688;2023-04-01T04:51:29;9.80;99.90
16417;DHT22;8317;52.186;5.688;2023-04-01T04:53:59;9.80;99.90
16417;DHT22;8317;52.186;5.688;2023-04-01T04:56:26;9.70;99.90
16417;DHT22;8317;52.186;5.688;2023-04-01T04:58:54;9.70;99.90
16417;DHT22;8317;52.186;5.688;2023-04-01T05:01:21;9.80;99.90
16417;DHT22;8317;52.186;5.688;2023-04-01T05:03:48;9.70;99.90
16417;DHT22;8317;52.186;5.688;2023-04-01T05:06:16;9.70;99.90
16417;DHT22;8317;52.186;5.688;2023-04-01T05:08:44;9.80;99.90
16417;DHT22;8317;52.186;5.688;2023-04-01T05:11:13;9.80;99.90
16417;DHT22;8317;52.186;5.688;2023-04-01T05:13:41;9.70;99.90
16417;DHT22;8317;52.186;5.688;2023-04-01T05:16:11;9.80;99.90
16417;DHT22;8317;52.186;5.688;2023-04-01T05:18:39;9.70;99.90
16417;DHT22;8317;52.186;5.688;2023-04-01T05:21:07;9.80;99.90
16417;DHT22;8317;52.186;5.688;2023-04-01T05:23:34;9.80;99.90
16417;DHT22;8317;52.186;5.688;2023-04-01T05:26:03;9.80;99.90
16417;DHT22;8317;52.186;5.688;2023-04-01T05:28:30;9.80;99.90
16417;DHT22;8317;52.186;5.688;2023-04-01T05:30:58;9.80;99.90
16417;DHT22;8317;52.186;5.688;2023-04-01T05:33:28;9.80;99.90
16417;DHT22;8317;52.186;5.688;2023-04-01T05:35:55;9.80;99.90
16417;DHT22;8317;52.186;5.688;2023-04-01T05:38:22;9.80;99.90
16417;DHT22;8317;52.186;5.688;2023-04-01T05:40:49;9.80;99.90
16417;DHT22;8317;52.186;5.688;2023-04-01T05:43:16;9.80;99.90
16417;DHT22;8317;52.186;5.688;2023-04-01T05:45:43;9.80;99.90
16417;DHT22;8317;52.186;5.688;2023-04-01T05:48:10;9.80;99.90
16417;DHT22;8317;52.186;5.688;2023-04-01T05:50:40;9.80;99.90
16417;DHT22;8317;52.186;5.688;2023-04-01T05:53:07;9.80;99.90
16417;DHT22;8317;52.186;5.688;2023-04-01T05:55:34;9.80;99.90
16417;DHT22;8317;52.186;5.688;2023-04-01T05:58:01;9.90;99.90
16417;DHT22;8317;52.186;5.688;2023-04-01T06:00:29;9.90;99.90
16417;DHT22;8317;52.186;5.688;2023-04-01T06:02:58;9.90;99.90
16417;DHT22;8317;52.186;5.688;2023-04-01T06:05:28;9.90;99.90
16417;DHT22;8317;52.186;5.688;2023-04-01T06:07:59;9.80;99.90
16417;DHT22;8317;52.186;5.688;2023-04-01T06:10:48;9.90;99.90
16417;DHT22;8317;52.186;5.688;2023-04-01T06:13:23;9.90;99.90
16417;DHT22;8317;52.186;5.688;2023-04-01T06:15:59;9.90;99.90
16417;DHT22;8317;52.186;5.688;2023-04-01T06:18:49;10.00;99.90
16417;DHT22;8317;52.186;5.688;2023-04-01T06:21:46;10.00;99.90
16417;DHT22;8317;52.186;5.688;2023-04-01T06:24:30;10.00;99.90
16417;DHT22;8317;52.186;5.688;2023-04-01T06:27:05;10.00;99.90
16417;DHT22;8317;52.186;5.688;2023-04-01T06:29:56;10.10;99.90
16417;DHT22;8317;52.186;5.688;2023-04-01T06:32:54;10.10;99.90
16417;DHT22;8317;52.186;5.688;2023-04-01T06:38:46;10.20;99.90
16417;DHT22;8317;52.186;5.688;2023-04-01T06:41:44;10.20;99.90
16417;DHT22;8317;52.186;5.688;2023-04-01T06:44:17;10.30;99.90
16417;DHT22;8317;52.186;5.688;2023-04-01T06:46:49;10.20;99.90
16417;DHT22;8317;52.186;5.688;2023-04-01T06:49:33;10.20;99.90
16417;DHT22;8317;52.186;5.688;2023-04-01T06:52:11;10.30;99.90
16417;DHT22;8317;52.186;5.688;2023-04-01T06:54:48;10.40;99.90
16417;DHT22;8317;52.186;5.688;2023-04-01T06:57:23;10.30;99.90
16417;DHT22;8317;52.186;5.688;2023-04-01T06:59:52;10.40;99.90
16417;DHT22;8317;52.186;5.688;2023-04-01T07:02:27;10.30;99.90
16417;DHT22;8317;52.186;5.688;2023-04-01T07:04:57;10.50;99.90
16417;DHT22;8317;52.186;5.688;2023-04-01T07:07:31;10.50;99.90
16417;DHT22;8317;52.186;5.688;2023-04-01T07:10:03;10.60;99.90
16417;DHT22;8317;52.186;5.688;2023-04-01T07:12:40;10.70;99.90
16417;DHT22;8317;52.186;5.688;2023-04-01T07:15:16;10.70;99.90
16417;DHT22;8317;52.186;5.688;2023-04-01T07:17:44;10.60;99.90
16417;DHT22;8317;52.186;5.688;2023-04-01T07:22:45;10.60;99.90
16417;DHT22;8317;52.186;5.688;2023-04-01T07:25:14;10.70;99.90
16417;DHT22;8317;52.186;5.688;2023-04-01T07:27:44;10.80;99.90
16417;DHT22;8317;52.186;5.688;2023-04-01T07:30:14;10.70;99.90
16417;DHT22;8317;52.186;5.688;2023-04-01T07:32:45;10.70;99.90
16417;DHT22;8317;52.186;5.688;2023-04-01T07:35:22;10.80;99.90
16417;DHT22;8317;52.186;5.688;2023-04-01T07:38:07;10.70;99.90
16417;DHT22;8317;52.186;5.688;2023-04-01T07:40:42;10.70;99.90
16417;DHT22;8317;52.186;5.688;2023-04-01T07:43:37;10.70;99.90
16417;DHT22;8317;52.186;5.688;2023-04-01T07:46:16;10.80;99.90
16417;DHT22;8317;52.186;5.688;2023-04-01T07:48:51;10.70;99.90
16417;DHT22;8317;52.186;5.688;2023-04-01T07:51:27;10.80;99.90
16417;DHT22;8317;52.186;5.688;2023-04-01T07:54:01;10.80;99.90
16417;DHT22;8317;52.186;5.688;2023-04-01T07:56:35;10.70;99.90
16417;DHT22;8317;52.186;5.688;2023-04-01T07:59:11;10.60;99.90
16417;DHT22;8317;52.186;5.688;2023-04-01T08:01:49;10.80;99.90
16417;DHT22;8317;52.186;5.688;2023-04-01T08:04:40;10.80;99.90
16417;DHT22;8317;52.186;5.688;2023-04-01T08:07:16;10.90;99.90
16417;DHT22;8317;52.186;5.688;2023-04-01T08:09:50;10.80;99.90
16417;DHT22;8317;52.186;5.688;2023-04-01T08:12:27;10.80;99.90
16417;DHT22;8317;52.186;5.688;2023-04-01T08:15:09;10.80;99.90
16417;DHT22;8317;52.186;5.688;2023-04-01T08:17:45;10.90;99.90
16417;DHT22;8317;52.186;5.688;2023-04-01T08:20:25;10.80;99.90
16417;DHT22;8317;52.186;5.688;2023-04-01T08:23:00;10.80;99.90
16417;DHT22;8317;52.186;5.688;2023-04-01T08:25:30;10.90;99.90
16417;DHT22;8317;52.186;5.688;2023-04-01T08:28:03;10.90;99.90
16417;DHT22;8317;52.186;5.688;2023-04-01T08:30:40;11.00;99.90
16417;DHT22;8317;52.186;5.688;2023-04-01T08:33:13;10.90;99.90
16417;DHT22;8317;52.186;5.688;2023-04-01T08:35:47;11.10;99.90
16417;DHT22;8317;52.186;5.688;2023-04-01T08:38:19;11.00;99.90
16417;DHT22;8317;52.186;5.688;2023-04-01T08:41:04;11.10;99.90
16417;DHT22;8317;52.186;5.688;2023-04-01T08:43:51;11.10;99.90
16417;DHT22;8317;52.186;5.688;2023-04-01T08:46:39;11.10;99.90
16417;DHT22;8317;52.186;5.688;2023-04-01T08:49:22;11.10;99.90
16417;DHT22;8317;52.186;5.688;2023-04-01T08:52:21;11.10;99.90
16417;DHT22;8317;52.186;5.688;2023-04-01T08:55:04;11.10;99.90
16417;DHT22;8317;52.186;5.688;2023-04-01T08:57:47;11.00;99.90
16417;DHT22;8317;52.186;5.688;2023-04-01T09:00:28;11.00;99.90
16417;DHT22;8317;52.186;5.688;2023-04-01T09:03:22;11.00;99.90
16417;DHT22;8317;52.186;5.688;2023-04-01T09:06:24;11.10;99.90
16417;DHT22;8317;52.186;5.688;2023-04-01T09:09:07;11.00;99.90
16417;DHT22;8317;52.186;5.688;2023-04-01T09:11:44;11.10;99.90
16417;DHT22;8317;52.186;5.688;2023-04-01T09:14:36;11.10;99.90
16417;DHT22;8317;52.186;5.688;2023-04-01T09:20:19;11.20;99.90
16417;DHT22;8317;52.186;5.688;2023-04-01T09:23:07;11.30;99.90
16417;DHT22;8317;52.186;5.688;2023-04-01T09:25:53;11.30;99.90
16417;DHT22;8317;52.186;5.688;2023-04-01T09:28:28;11.40;99.90
16417;DHT22;8317;52.186;5.688;2023-04-01T09:34:30;11.40;99.90
16417;DHT22;8317;52.186;5.688;2023-04-01T09:37:17;11.50;99.90
16417;DHT22;8317;52.186;5.688;2023-04-01T09:40:02;11.60;99.90
16417;DHT22;8317;52.186;5.688;2023-04-01T09:42:43;11.50;99.90
16417;DHT22;8317;52.186;5.688;2023-04-01T09:45:21;11.50;99.90
16417;DHT22;8317;52.186;5.688;2023-04-01T09:48:02;11.50;99.90
16417;DHT22;8317;52.186;5.688;2023-04-01T09:50:42;11.50;99.90
16417;DHT22;8317;52.186;5.688;2023-04-01T09:53:40;11.50;99.90
16417;DHT22;8317;52.186;5.688;2023-04-01T09:56:30;11.60;99.90
16417;DHT22;8317;52.186;5.688;2023-04-01T10:02:50;11.60;99.90
16417;DHT22;8317;52.186;5.688;2023-04-01T10:09:15;11.70;99.90
16417;DHT22;8317;52.186;5.688;2023-04-01T10:12:08;11.80;99.90
16417;DHT22;8317;52.186;5.688;2023-04-01T10:15:09;11.90;99.90
16417;DHT22;8317;52.186;5.688;2023-04-01T10:17:57;12.10;99.90
16417;DHT22;8317;52.186;5.688;2023-04-01T10:21:06;12.00;99.90
16417;DHT22;8317;52.186;5.688;2023-04-01T10:24:01;12.00;99.90
16417;DHT22;8317;52.186;5.688;2023-04-01T10:30:13;12.00;99.90
16417;DHT22;8317;52.186;5.688;2023-04-01T10:42:27;11.70;99.90
16417;DHT22;8317;52.186;5.688;2023-04-01T10:48:13;11.70;99.90
16417;DHT22;8317;52.186;5.688;2023-04-01T10:51:16;11.70;99.90
16417;DHT22;8317;52.186;5.688;2023-04-01T10:54:16;11.70;99.90
16417;DHT22;8317;52.186;5.688;2023-04-01T10:56:54;11.60;99.90
16417;DHT22;8317;52.186;5.688;2023-04-01T10:59:53;11.60;99.90
16417;DHT22;8317;52.186;5.688;2023-04-01T11:02:57;11.50;99.90
16417;DHT22;8317;52.186;5.688;2023-04-01T11:05:58;11.40;99.90
16417;DHT22;8317;52.186;5.688;2023-04-01T11:09:07;11.50;99.90
16417;DHT22;8317;52.186;5.688;2023-04-01T11:12:09;11.50;99.90
16417;DHT22;8317;52.186;5.688;2023-04-01T11:15:07;11.50;99.90
16417;DHT22;8317;52.186;5.688;2023-04-01T11:27:05;11.80;99.90
16417;DHT22;8317;52.186;5.688;2023-04-01T11:32:45;11.80;99.90
16417;DHT22;8317;52.186;5.688;2023-04-01T11:35:49;11.90;99.90
16417;DHT22;8317;52.186;5.688;2023-04-01T11:38:32;12.00;99.90
16417;DHT22;8317;52.186;5.688;2023-04-01T11:41:13;11.90;99.90
16417;DHT22;8317;52.186;5.688;2023-04-01T11:43:52;11.90;99.90
16417;DHT22;8317;52.186;5.688;2023-04-01T11:46:27;11.80;99.90
16417;DHT22;8317;52.186;5.688;2023-04-01T11:49:06;11.90;99.90
16417;DHT22;8317;52.186;5.688;2023-04-01T11:51:57;11.80;99.90
16417;DHT22;8317;52.186;5.688;2023-04-01T11:54:42;11.90;99.90
16417;DHT22;8317;52.186;5.688;2023-04-01T11:57:38;11.80;99.90
16417;DHT22;8317;52.186;5.688;2023-04-01T12:00:35;11.90;99.90
16417;DHT22;8317;52.186;5.688;2023-04-01T12:03:21;12.00;99.90
16417;DHT22;8317;52.186;5.688;2023-04-01T12:05:57;12.00;99.90
16417;DHT22;8317;52.186;5.688;2023-04-01T12:08:34;12.00;99.90
16417;DHT22;8317;52.186;5.688;2023-04-01T12:11:09;12.00;99.90
16417;DHT22;8317;52.186;5.688;2023-04-01T12:13:45;11.90;99.90
16417;DHT22;8317;52.186;5.688;2023-04-01T12:16:26;11.90;99.90
16417;DHT22;8317;52.186;5.688;2023-04-01T12:18:59;11.90;99.90
16417;DHT22;8317;52.186;5.688;2023-04-01T12:21:34;11.80;99.90
16417;DHT22;8317;52.186;5.688;2023-04-01T12:24:41;11.80;99.90
16417;DHT22;8317;52.186;5.688;2023-04-01T12:27:20;11.70;99.90
16417;DHT22;8317;52.186;5.688;2023-04-01T12:30:21;11.70;99.90
16417;DHT22;8317;52.186;5.688;2023-04-01T12:33:00;11.70;99.90
16417;DHT22;8317;52.186;5.688;2023-04-01T12:35:35;11.70;99.90
16417;DHT22;8317;52.186;5.688;2023-04-01T12:38:17;11.80;99.90
16417;DHT22;8317;52.186;5.688;2023-04-01T12:41:07;11.70;99.90
16417;DHT22;8317;52.186;5.688;2023-04-01T12:43:57;11.70;99.90
16417;DHT22;8317;52.186;5.688;2023-04-01T12:46:29;11.80;99.90
16417;DHT22;8317;52.186;5.688;2023-04-01T12:49:16;11.80;99.90
16417;DHT22;8317;52.186;5.688;2023-04-01T12:51:58;11.90;99.90
16417;DHT22;8317;52.186;5.688;2023-04-01T12:55:16;12.00;99.90
16417;DHT22;8317;52.186;5.688;2023-04-01T13:01:02;12.10;99.90
16417;DHT22;8317;52.186;5.688;2023-04-01T13:03:54;12.10;99.90
16417;DHT22;8317;52.186;5.688;2023-04-01T13:06:32;12.00;99.90
16417;DHT22;8317;52.186;5.688;2023-04-01T13:09:13;12.10;99.90
16417;DHT22;8317;52.186;5.688;2023-04-01T13:11:59;12.10;99.90
16417;DHT22;8317;52.186;5.688;2023-04-01T13:17:43;12.00;99.90
16417;DHT22;8317;52.186;5.688;2023-04-01T13:20:19;12.00;99.90
16417;DHT22;8317;52.186;5.688;2023-04-01T13:22:59;12.00;99.90
16417;DHT22;8317;52.186;5.688;2023-04-01T13:25:32;12.00;99.90
16417;DHT22;8317;52.186;5.688;2023-04-01T13:28:09;12.00;99.90
16417;DHT22;8317;52.186;5.688;2023-04-01T13:30:47;11.90;99.90
16417;DHT22;8317;52.186;5.688;2023-04-01T13:33:20;12.00;99.90
16417;DHT22;8317;52.186;5.688;2023-04-01T13:36:02;12.00;99.90
16417;DHT22;8317;52.186;5.688;2023-04-01T13:38:48;12.10;99.90
16417;DHT22;8317;52.186;5.688;2023-04-01T13:41:27;12.00;99.90
16417;DHT22;8317;52.186;5.688;2023-04-01T13:44:00;11.90;99.90
16417;DHT22;8317;52.186;5.688;2023-04-01T13:46:46;12.00;99.90
16417;DHT22;8317;52.186;5.688;2023-04-01T13:49:31;12.00;99.90
16417;DHT22;8317;52.186;5.688;2023-04-01T13:58:04;12.00;99.90
16417;DHT22;8317;52.186;5.688;2023-04-01T14:00:38;12.00;99.90
16417;DHT22;8317;52.186;5.688;2023-04-01T14:03:21;12.00;99.90
16417;DHT22;8317;52.186;5.688;2023-04-01T14:06:02;11.90;99.90
16417;DHT22;8317;52.186;5.688;2023-04-01T14:08:40;11.90;99.90
16417;DHT22;8317;52.186;5.688;2023-04-01T14:11:17;11.90;99.90
16417;DHT22;8317;52.186;5.688;2023-04-01T14:13:52;11.80;99.90
16417;DHT22;8317;52.186;5.688;2023-04-01T14:16:50;11.70;99.90
16417;DHT22;8317;52.186;5.688;2023-04-01T14:22:17;11.60;99.90
16417;DHT22;8317;52.186;5.688;2023-04-01T14:25:17;11.60;99.90
16417;DHT22;8317;52.186;5.688;2023-04-01T14:28:03;11.50;99.90
16417;DHT22;8317;52.186;5.688;2023-04-01T14:33:37;11.60;99.90
16417;DHT22;8317;52.186;5.688;2023-04-01T14:36:27;11.60;99.90
16417;DHT22;8317;52.186;5.688;2023-04-01T14:39:00;11.50;99.90
16417;DHT22;8317;52.186;5.688;2023-04-01T14:41:40;11.60;99.90
16417;DHT22;8317;52.186;5.688;2023-04-01T14:44:23;11.60;99.90
16417;DHT22;8317;52.186;5.688;2023-04-01T14:47:22;11.60;99.90
16417;DHT22;8317;52.186;5.688;2023-04-01T14:49:53;11.60;99.90
16417;DHT22;8317;52.186;5.688;2023-04-01T14:52:27;11.70;99.90
16417;DHT22;8317;52.186;5.688;2023-04-01T14:54:56;11.70;99.90
16417;DHT22;8317;52.186;5.688;2023-04-01T14:57:27;11.80;99.90
16417;DHT22;8317;52.186;5.688;2023-04-01T15:00:01;11.80;99.90
16417;DHT22;8317;52.186;5.688;2023-04-01T15:02:51;11.90;99.90
16417;DHT22;8317;52.186;5.688;2023-04-01T15:05:32;11.80;99.90
16417;DHT22;8317;52.186;5.688;2023-04-01T15:08:16;11.80;99.90
16417;DHT22;8317;52.186;5.688;2023-04-01T15:11:00;11.60;99.90
16417;DHT22;8317;52.186;5.688;2023-04-01T15:16:44;11.50;99.90
16417;DHT22;8317;52.186;5.688;2023-04-01T15:19:23;11.50;99.90
16417;DHT22;8317;52.186;5.688;2023-04-01T15:22:03;11.40;99.90
16417;DHT22;8317;52.186;5.688;2023-04-01T15:24:40;11.40;99.90
16417;DHT22;8317;52.186;5.688;2023-04-01T15:27:16;11.30;99.90
16417;DHT22;8317;52.186;5.688;2023-04-01T15:30:00;11.30;99.90
16417;DHT22;8317;52.186;5.688;2023-04-01T15:32:41;11.30;99.90
16417;DHT22;8317;52.186;5.688;2023-04-01T15:35:21;11.30;99.90
16417;DHT22;8317;52.186;5.688;2023-04-01T15:37:55;11.30;99.90
16417;DHT22;8317;52.186;5.688;2023-04-01T15:40:27;11.30;99.90
16417;DHT22;8317;52.186;5.688;2023-04-01T15:43:04;11.30;99.90
16417;DHT22;8317;52.186;5.688;2023-04-01T15:45:49;11.30;99.90
16417;DHT22;8317;52.186;5.688;2023-04-01T15:51:28;11.20;99.90
16417;DHT22;8317;52.186;5.688;2023-04-01T15:54:21;11.20;99.90
16417;DHT22;8317;52.186;5.688;2023-04-01T15:57:00;11.20;99.90
16417;DHT22;8317;52.186;5.688;2023-04-01T15:59:47;11.20;99.90
16417;DHT22;8317;52.186;5.688;2023-04-01T16:02:21;11.00;99.90
16417;DHT22;8317;52.186;5.688;2023-04-01T16:04:57;11.00;99.90
16417;DHT22;8317;52.186;5.688;2023-04-01T16:07:55;10.90;99.90
16417;DHT22;8317;52.186;5.688;2023-04-01T16:10:35;10.90;99.90
16417;DHT22;8317;52.186;5.688;2023-04-01T16:13:16;10.90;99.90
16417;DHT22;8317;52.186;5.688;2023-04-01T16:15:55;10.90;99.90
16417;DHT22;8317;52.186;5.688;2023-04-01T16:18:39;10.80;99.90
16417;DHT22;8317;52.186;5.688;2023-04-01T16:21:21;10.80;99.90
16417;DHT22;8317;52.186;5.688;2023-04-01T16:23:55;10.80;99.90
16417;DHT22;8317;52.186;5.688;2023-04-01T16:26:26;10.70;99.90
16417;DHT22;8317;52.186;5.688;2023-04-01T16:28:57;10.70;99.90
16417;DHT22;8317;52.186;5.688;2023-04-01T16:31:34;10.60;99.90
16417;DHT22;8317;52.186;5.688;2023-04-01T16:34:08;10.60;99.90
16417;DHT22;8317;52.186;5.688;2023-04-01T16:36:43;10.60;99.90
16417;DHT22;8317;52.186;5.688;2023-04-01T16:39:26;10.60;99.90
16417;DHT22;8317;52.186;5.688;2023-04-01T16:45:06;10.40;99.90
16417;DHT22;8317;52.186;5.688;2023-04-01T16:47:47;10.50;99.90
16417;DHT22;8317;52.186;5.688;2023-04-01T16:50:19;10.50;99.90
16417;DHT22;8317;52.186;5.688;2023-04-01T16:53:07;10.40;99.90
16417;DHT22;8317;52.186;5.688;2023-04-01T16:55:46;10.40;99.90
16417;DHT22;8317;52.186;5.688;2023-04-01T16:58:20;10.40;99.90
16417;DHT22;8317;52.186;5.688;2023-04-01T17:00:50;10.40;99.90
16417;DHT22;8317;52.186;5.688;2023-04-01T17:03:21;10.30;99.90
16417;DHT22;8317;52.186;5.688;2023-04-01T17:06:07;10.30;99.90
16417;DHT22;8317;52.186;5.688;2023-04-01T17:08:50;10.20;99.90
16417;DHT22;8317;52.186;5.688;2023-04-01T17:11:23;10.20;99.90
16417;DHT22;8317;52.186;5.688;2023-04-01T17:14:01;10.30;99.90
16417;DHT22;8317;52.186;5.688;2023-04-01T17:16:46;10.20;99.90
16417;DHT22;8317;52.186;5.688;2023-04-01T17:22:22;10.10;99.90
16417;DHT22;8317;52.186;5.688;2023-04-01T17:25:02;10.10;99.90
16417;DHT22;8317;52.186;5.688;2023-04-01T17:27:41;10.10;99.90
16417;DHT22;8317;52.186;5.688;2023-04-01T17:30:19;10.00;99.90
16417;DHT22;8317;52.186;5.688;2023-04-01T17:32:59;10.00;99.90
16417;DHT22;8317;52.186;5.688;2023-04-01T17:35:34;9.90;99.90
16417;DHT22;8317;52.186;5.688;2023-04-01T17:38:12;9.80;99.90
16417;DHT22;8317;52.186;5.688;2023-04-01T17:40:50;9.90;99.90
16417;DHT22;8317;52.186;5.688;2023-04-01T17:43:30;9.90;99.90
16417;DHT22;8317;52.186;5.688;2023-04-01T17:46:05;9.80;99.90
16417;DHT22;8317;52.186;5.688;2023-04-01T17:48:46;9.80;99.90
16417;DHT22;8317;52.186;5.688;2023-04-01T17:51:23;9.70;99.90
16417;DHT22;8317;52.186;5.688;2023-04-01T17:53:57;9.70;99.90
16417;DHT22;8317;52.186;5.688;2023-04-01T17:56:37;9.70;99.90
16417;DHT22;8317;52.186;5.688;2023-04-01T17:59:12;9.70;99.90
16417;DHT22;8317;52.186;5.688;2023-04-01T18:01:46;9.70;99.90
16417;DHT22;8317;52.186;5.688;2023-04-01T18:07:22;9.50;99.90
16417;DHT22;8317;52.186;5.688;2023-04-01T18:10:02;9.50;99.90
16417;DHT22;8317;52.186;5.688;2023-04-01T18:12:38;9.60;99.90
16417;DHT22;8317;52.186;5.688;2023-04-01T18:15:19;9.50;99.90
16417;DHT22;8317;52.186;5.688;2023-04-01T18:17:58;9.50;99.90